Home > Products > Valid Products > TAF

000
FTUS45 KBOU 191244 AAA
TAFDEN
TAF AMD
KDEN 191244Z 1913/2018 19014KT P6SM FEW200
     FM191330 30007KT P6SM FEW140 SCT200
     FM191430 02011G19KT P6SM SCT140 SCT220
     FM191700 04010KT P6SM FEW090 SCT140
     FM192200 09011KT P6SM SCT090 SCT140
     FM200100 14010KT P6SM SCT090 BKN140
     FM200300 22007KT P6SM FEW090 BKN140
     FM200600 35010KT P6SM SCT090 BKN120=



000
FTUS45 KBOU 191244 AAA
TAFDEN
TAF AMD
KDEN 191244Z 1913/2018 19014KT P6SM FEW200
     FM191330 30007KT P6SM FEW140 SCT200
     FM191430 02011G19KT P6SM SCT140 SCT220
     FM191700 04010KT P6SM FEW090 SCT140
     FM192200 09011KT P6SM SCT090 SCT140
     FM200100 14010KT P6SM SCT090 BKN140
     FM200300 22007KT P6SM FEW090 BKN140
     FM200600 35010KT P6SM SCT090 BKN120=



000
FTUS45 KBOU 191124
TAFAPA
TAF
KAPA 191124Z 1912/2012 19009KT P6SM SKC
     FM191400 24005KT P6SM FEW140 SCT200
     FM191530 02012KT P6SM SCT140 SCT220
     FM191700 04010KT P6SM FEW090 SCT140
     FM192200 09011KT P6SM SCT090 SCT140
     FM200100 14010KT P6SM SCT090 BKN140
     FM200300 18009KT P6SM FEW090 BKN140
     FM200700 35010KT P6SM SCT080 BKN120=



000
FTUS45 KBOU 191124
TAFBJC
TAF
KBJC 191124Z 1912/2012 24007KT P6SM FEW140 SCT220
     FM191300 31006KT P6SM FEW140 SCT200
     FM191430 02011G19KT P6SM SCT140 SCT220
     FM191700 04010KT P6SM FEW090 SCT140
     FM192100 09011KT P6SM SCT090 BKN140
     FM200100 14010KT P6SM SCT090 BKN120
     FM200300 22007KT P6SM FEW090 BKN140
     FM200700 35010KT P6SM SCT080 BKN120=



000
FTUS45 KBOU 191124
TAFDEN
TAF
KDEN 191124Z 1912/2018 19014KT P6SM SKC
     FM191300 30007KT P6SM FEW140 SCT200
     FM191430 02011G19KT P6SM SCT140 SCT220
     FM191700 04010KT P6SM FEW090 SCT140
     FM192200 09011KT P6SM SCT090 SCT140
     FM200100 14010KT P6SM SCT090 BKN140
     FM200300 22007KT P6SM FEW090 BKN140
     FM200600 35010KT P6SM SCT090 BKN120=



000
FTUS45 KBOU 191124
TAFAPA
TAF
KAPA 191124Z 1912/2012 19009KT P6SM SKC
     FM191400 24005KT P6SM FEW140 SCT200
     FM191530 02012KT P6SM SCT140 SCT220
     FM191700 04010KT P6SM FEW090 SCT140
     FM192200 09011KT P6SM SCT090 SCT140
     FM200100 14010KT P6SM SCT090 BKN140
     FM200300 18009KT P6SM FEW090 BKN140
     FM200700 35010KT P6SM SCT080 BKN120=



000
FTUS45 KBOU 191124
TAFDEN
TAF
KDEN 191124Z 1912/2018 19014KT P6SM SKC
     FM191300 30007KT P6SM FEW140 SCT200
     FM191430 02011G19KT P6SM SCT140 SCT220
     FM191700 04010KT P6SM FEW090 SCT140
     FM192200 09011KT P6SM SCT090 SCT140
     FM200100 14010KT P6SM SCT090 BKN140
     FM200300 22007KT P6SM FEW090 BKN140
     FM200600 35010KT P6SM SCT090 BKN120=



000
FTUS45 KBOU 191124
TAFBJC
TAF
KBJC 191124Z 1912/2012 24007KT P6SM FEW140 SCT220
     FM191300 31006KT P6SM FEW140 SCT200
     FM191430 02011G19KT P6SM SCT140 SCT220
     FM191700 04010KT P6SM FEW090 SCT140
     FM192100 09011KT P6SM SCT090 BKN140
     FM200100 14010KT P6SM SCT090 BKN120
     FM200300 22007KT P6SM FEW090 BKN140
     FM200700 35010KT P6SM SCT080 BKN120=



000
FTUS45 KBOU 190832 AAA
TAFDEN
TAF AMD
KDEN 190832Z 1909/2012 19016KT P6SM SKC
     FM191300 23009KT P6SM FEW140 SCT220
     FM191600 33007KT P6SM SCT140 SCT220
     FM191800 02010KT P6SM FEW090 SCT140
     FM192100 08010KT P6SM SCT090 SCT140
     FM200300 22007KT P6SM FEW140=



000
FTUS45 KBOU 190832 AAA
TAFDEN
TAF AMD
KDEN 190832Z 1909/2012 19016KT P6SM SKC
     FM191300 23009KT P6SM FEW140 SCT220
     FM191600 33007KT P6SM SCT140 SCT220
     FM191800 02010KT P6SM FEW090 SCT140
     FM192100 08010KT P6SM SCT090 SCT140
     FM200300 22007KT P6SM FEW140=



000
FTUS45 KBOU 190756 AAA
TAFAPA
TAF AMD
KAPA 190756Z 1908/2006 19009KT P6SM SKC
     FM191300 23008KT P6SM FEW140 SCT220
     FM191600 33007KT P6SM SCT140 SCT220
     FM191800 01009KT P6SM FEW090 SCT140
     FM192100 07010KT P6SM SCT090 SCT140
     FM200300 18007KT P6SM FEW140=



000
FTUS45 KBOU 190756 AAA
TAFAPA
TAF AMD
KAPA 190756Z 1908/2006 19009KT P6SM SKC
     FM191300 23008KT P6SM FEW140 SCT220
     FM191600 33007KT P6SM SCT140 SCT220
     FM191800 01009KT P6SM FEW090 SCT140
     FM192100 07010KT P6SM SCT090 SCT140
     FM200300 18007KT P6SM FEW140=



000
FTUS45 KBOU 190525
TAFAPA
TAF
KAPA 190525Z 1906/2006 19014G24KT P6SM SKC
     FM191300 23009KT P6SM FEW140 SCT220
     FM191600 33007KT P6SM SCT140 SCT220
     FM191800 01009KT P6SM FEW090 SCT140
     FM192100 07010KT P6SM SCT090 SCT140
     FM200300 18007KT P6SM FEW140=



000
FTUS45 KBOU 190525
TAFDEN
TAF
KDEN 190525Z 1906/2012 20014G22KT P6SM SKC
     FM191300 23009KT P6SM FEW140 SCT220
     FM191600 33007KT P6SM SCT140 SCT220
     FM191800 02010KT P6SM FEW090 SCT140
     FM192100 08010KT P6SM SCT090 SCT140
     FM200300 22007KT P6SM FEW140=



000
FTUS45 KBOU 190525
TAFAPA
TAF
KAPA 190525Z 1906/2006 19014G24KT P6SM SKC
     FM191300 23009KT P6SM FEW140 SCT220
     FM191600 33007KT P6SM SCT140 SCT220
     FM191800 01009KT P6SM FEW090 SCT140
     FM192100 07010KT P6SM SCT090 SCT140
     FM200300 18007KT P6SM FEW140=



000
FTUS45 KBOU 190525
TAFBJC
TAF
KBJC 190525Z 1906/2006 16007KT P6SM SKC
     FM191000 24007KT P6SM FEW140 SCT220
     FM191500 33007KT P6SM FEW140 SCT220
     FM191800 02010KT P6SM SCT090 SCT140
     FM192100 07010KT P6SM SCT090 SCT140
     FM200200 VRB05KT P6SM FEW140=



000
FTUS45 KBOU 190525
TAFBJC
TAF
KBJC 190525Z 1906/2006 16007KT P6SM SKC
     FM191000 24007KT P6SM FEW140 SCT220
     FM191500 33007KT P6SM FEW140 SCT220
     FM191800 02010KT P6SM SCT090 SCT140
     FM192100 07010KT P6SM SCT090 SCT140
     FM200200 VRB05KT P6SM FEW140=



000
FTUS45 KBOU 190525
TAFDEN
TAF
KDEN 190525Z 1906/2012 20014G22KT P6SM SKC
     FM191300 23009KT P6SM FEW140 SCT220
     FM191600 33007KT P6SM SCT140 SCT220
     FM191800 02010KT P6SM FEW090 SCT140
     FM192100 08010KT P6SM SCT090 SCT140
     FM200300 22007KT P6SM FEW140=



000
FTUS45 KBOU 190301 AAA
TAFAPA
TAF AMD
KAPA 190301Z 1903/1924 17013G20KT P6SM FEW100 FEW200
     FM190700 19012KT P6SM FEW200
     FM191400 24007KT P6SM FEW140 SCT220
     FM191600 33007KT P6SM SCT140 SCT220
     FM191900 01007KT P6SM SCT090 SCT140=



000
FTUS45 KBOU 190301 AAA
TAFAPA
TAF AMD
KAPA 190301Z 1903/1924 17013G20KT P6SM FEW100 FEW200
     FM190700 19012KT P6SM FEW200
     FM191400 24007KT P6SM FEW140 SCT220
     FM191600 33007KT P6SM SCT140 SCT220
     FM191900 01007KT P6SM SCT090 SCT140=



000
FTUS45 KBOU 190301 AAA
TAFDEN
TAF AMD
KDEN 190301Z 1903/2006 17012G20KT P6SM FEW100 FEW200
     FM190700 19013KT P6SM FEW200
     FM191400 24007KT P6SM FEW140 SCT220
     FM191600 33007KT P6SM SCT140 SCT220
     FM191900 02008KT P6SM SCT090 SCT140
     FM200100 22007KT P6SM SCT090 SCT140 BKN200=



000
FTUS45 KBOU 190301 AAA
TAFDEN
TAF AMD
KDEN 190301Z 1903/2006 17012G20KT P6SM FEW100 FEW200
     FM190700 19013KT P6SM FEW200
     FM191400 24007KT P6SM FEW140 SCT220
     FM191600 33007KT P6SM SCT140 SCT220
     FM191900 02008KT P6SM SCT090 SCT140
     FM200100 22007KT P6SM SCT090 SCT140 BKN200=



000
FTUS45 KBOU 182331
TAFDEN
TAF
KDEN 182331Z 1900/2006 16011G17KT P6SM FEW100 FEW200
     FM190400 19013KT P6SM FEW200
     FM191400 24007KT P6SM FEW140 SCT220
     FM191600 33007KT P6SM SCT140 SCT220
     FM191900 02008KT P6SM SCT090 SCT140
     FM200100 22007KT P6SM SCT090 SCT140 BKN200=



000
FTUS45 KBOU 182331
TAFAPA
TAF
KAPA 182331Z 1900/1924 16012G18KT P6SM FEW100 FEW200
     FM190400 19011KT P6SM FEW200
     FM191400 24007KT P6SM FEW140 SCT220
     FM191600 33007KT P6SM SCT140 SCT220
     FM191900 01007KT P6SM SCT090 SCT140=



000
FTUS45 KBOU 182331
TAFBJC
TAF
KBJC 182331Z 1900/1924 13006KT P6SM SCT100
     FM190200 16007KT P6SM SCT100
     FM190800 25007KT P6SM FEW140 SCT220
     FM191500 33007KT P6SM FEW140 SCT220
     FM191800 01008KT P6SM SCT090 SCT140=



000
FTUS45 KBOU 182331
TAFAPA
TAF
KAPA 182331Z 1900/1924 16012G18KT P6SM FEW100 FEW200
     FM190400 19011KT P6SM FEW200
     FM191400 24007KT P6SM FEW140 SCT220
     FM191600 33007KT P6SM SCT140 SCT220
     FM191900 01007KT P6SM SCT090 SCT140=



000
FTUS45 KBOU 182331
TAFDEN
TAF
KDEN 182331Z 1900/2006 16011G17KT P6SM FEW100 FEW200
     FM190400 19013KT P6SM FEW200
     FM191400 24007KT P6SM FEW140 SCT220
     FM191600 33007KT P6SM SCT140 SCT220
     FM191900 02008KT P6SM SCT090 SCT140
     FM200100 22007KT P6SM SCT090 SCT140 BKN200=



000
FTUS45 KBOU 182331
TAFBJC
TAF
KBJC 182331Z 1900/1924 13006KT P6SM SCT100
     FM190200 16007KT P6SM SCT100
     FM190800 25007KT P6SM FEW140 SCT220
     FM191500 33007KT P6SM FEW140 SCT220
     FM191800 01008KT P6SM SCT090 SCT140=



000
FTUS45 KBOU 182155 AAB
TAFAPA
TAF AMD
KAPA 182155Z 1822/1918 14010KT P6SM FEW100 SCT220
     FM182230 15010G17KT P6SM FEW100 SCT220
     FM190200 19012KT P6SM SKC
     FM191400 24007KT P6SM SCT220
     FM191700 33007KT P6SM SCT220=



000
FTUS45 KBOU 182155 AAB
TAFAPA
TAF AMD
KAPA 182155Z 1822/1918 14010KT P6SM FEW100 SCT220
     FM182230 15010G17KT P6SM FEW100 SCT220
     FM190200 19012KT P6SM SKC
     FM191400 24007KT P6SM SCT220
     FM191700 33007KT P6SM SCT220=



000
FTUS45 KBOU 182103 AAB
TAFDEN
TAF AMD
KDEN 182103Z 1821/1924 18010KT P6SM FEW100 SCT220
     FM182300 16012G19KT P6SM FEW100 SCT220
     FM190200 19012KT P6SM SKC
     FM191400 24007KT P6SM SCT220
     FM191600 33007KT P6SM SCT220
     FM191900 02008KT P6SM SCT090 SCT140=



000
FTUS45 KBOU 182103 AAB
TAFDEN
TAF AMD
KDEN 182103Z 1821/1924 18010KT P6SM FEW100 SCT220
     FM182300 16012G19KT P6SM FEW100 SCT220
     FM190200 19012KT P6SM SKC
     FM191400 24007KT P6SM SCT220
     FM191600 33007KT P6SM SCT220
     FM191900 02008KT P6SM SCT090 SCT140=



000
FTUS45 KBOU 181942 AAA
TAFBJC
TAF AMD
KBJC 181942Z 1820/1918 10008KT P6SM FEW100 SCT220
     FM190000 15008KT P6SM FEW100 SCT220
     FM190200 VRB04KT P6SM FEW220
     FM190800 25007KT P6SM SCT220
     FM191500 33007KT P6SM SCT220=



000
FTUS45 KBOU 181942 AAA
TAFBJC
TAF AMD
KBJC 181942Z 1820/1918 10008KT P6SM FEW100 SCT220
     FM190000 15008KT P6SM FEW100 SCT220
     FM190200 VRB04KT P6SM FEW220
     FM190800 25007KT P6SM SCT220
     FM191500 33007KT P6SM SCT220=



000
FTUS45 KBOU 181940 AAA
TAFAPA
TAF AMD
KAPA 181940Z 1820/1918 16007KT P6SM FEW100 SCT220
     FM182100 16012G19KT P6SM FEW100 SCT220
     FM190200 19012KT P6SM SKC
     FM191400 24007KT P6SM SCT220
     FM191700 33007KT P6SM SCT220=



000
FTUS45 KBOU 181940 AAA
TAFAPA
TAF AMD
KAPA 181940Z 1820/1918 16007KT P6SM FEW100 SCT220
     FM182100 16012G19KT P6SM FEW100 SCT220
     FM190200 19012KT P6SM SKC
     FM191400 24007KT P6SM SCT220
     FM191700 33007KT P6SM SCT220=



000
FTUS45 KBOU 181939 AAA
TAFDEN
TAF AMD
KDEN 181939Z 1820/1924 16010KT P6SM FEW100 SCT220
     FM182200 16012G19KT P6SM FEW100 SCT220
     FM190200 19012KT P6SM SKC
     FM191400 24007KT P6SM SCT220
     FM191600 33007KT P6SM SCT220
     FM191900 02008KT P6SM SCT090 SCT140=



000
FTUS45 KBOU 181939 AAA
TAFDEN
TAF AMD
KDEN 181939Z 1820/1924 16010KT P6SM FEW100 SCT220
     FM182200 16012G19KT P6SM FEW100 SCT220
     FM190200 19012KT P6SM SKC
     FM191400 24007KT P6SM SCT220
     FM191600 33007KT P6SM SCT220
     FM191900 02008KT P6SM SCT090 SCT140=



000
FTUS45 KBOU 181720
TAFDEN
TAF
KDEN 181720Z 1818/1924 18007KT P6SM FEW100 SCT220
     FM182000 16012G19KT P6SM FEW100 SCT220
     FM190200 19012KT P6SM SKC
     FM191400 24007KT P6SM SCT220
     FM191600 33007KT P6SM SCT220
     FM191900 02008KT P6SM SCT090 SCT140=



000
FTUS45 KBOU 181720
TAFBJC
TAF
KBJC 181720Z 1818/1918 08006KT P6SM FEW100 SCT220
     FM182000 15012KT P6SM FEW100 SCT220
     FM190200 18010KT P6SM SKC
     FM190800 25007KT P6SM SCT220
     FM191500 33007KT P6SM SCT220=



000
FTUS45 KBOU 181720
TAFAPA
TAF
KAPA 181720Z 1818/1918 18007KT P6SM FEW100 SCT220
     FM182000 16012G19KT P6SM FEW100 SCT220
     FM190200 19012KT P6SM SKC
     FM191400 24007KT P6SM SCT220
     FM191700 33007KT P6SM SCT220=



000
FTUS45 KBOU 181720
TAFBJC
TAF
KBJC 181720Z 1818/1918 08006KT P6SM FEW100 SCT220
     FM182000 15012KT P6SM FEW100 SCT220
     FM190200 18010KT P6SM SKC
     FM190800 25007KT P6SM SCT220
     FM191500 33007KT P6SM SCT220=



000
FTUS45 KBOU 181720
TAFDEN
TAF
KDEN 181720Z 1818/1924 18007KT P6SM FEW100 SCT220
     FM182000 16012G19KT P6SM FEW100 SCT220
     FM190200 19012KT P6SM SKC
     FM191400 24007KT P6SM SCT220
     FM191600 33007KT P6SM SCT220
     FM191900 02008KT P6SM SCT090 SCT140=



000
FTUS45 KBOU 181720
TAFAPA
TAF
KAPA 181720Z 1818/1918 18007KT P6SM FEW100 SCT220
     FM182000 16012G19KT P6SM FEW100 SCT220
     FM190200 19012KT P6SM SKC
     FM191400 24007KT P6SM SCT220
     FM191700 33007KT P6SM SCT220=



000
FTUS45 KBOU 181458 AAA
TAFDEN
TAF AMD
KDEN 181458Z 1815/1918 24009KT P6SM FEW220
     FM181800 16007KT P6SM SCT220
     FM182100 16012G19KT P6SM FEW110 SCT220
     FM190200 19012KT P6SM SKC
     FM191400 24007KT P6SM SCT220=



000
FTUS45 KBOU 181123
TAFBJC
TAF
KBJC 181123Z 1812/1912 27006KT P6SM FEW200
     FM181500 VRB05KT P6SM FEW200
     FM181800 08006KT P6SM FEW200
     FM182100 15012KT P6SM FEW110 SCT200
     FM190200 18010KT P6SM SKC
     FM190500 22007KT P6SM SKC=



000
FTUS45 KBOU 181123
TAFDEN
TAF
KDEN 181123Z 1812/1918 21012KT P6SM FEW220
     FM181500 24007KT P6SM FEW220
     FM181800 16007KT P6SM SCT220
     FM182100 16012G19KT P6SM FEW110 SCT220
     FM190200 19012KT P6SM SKC
     FM191400 24007KT P6SM SCT220=



000
FTUS45 KBOU 181123
TAFAPA
TAF
KAPA 181123Z 1812/1912 17007KT P6SM FEW220
     FM181500 23006KT P6SM FEW220
     FM181800 16010KT P6SM SCT220
     FM182100 16012G19KT P6SM FEW110 SCT220
     FM190200 19012KT P6SM SKC=



000
FTUS45 KBOU 181123
TAFDEN
TAF
KDEN 181123Z 1812/1918 21012KT P6SM FEW220
     FM181500 24007KT P6SM FEW220
     FM181800 16007KT P6SM SCT220
     FM182100 16012G19KT P6SM FEW110 SCT220
     FM190200 19012KT P6SM SKC
     FM191400 24007KT P6SM SCT220=



000
FTUS45 KBOU 181123
TAFBJC
TAF
KBJC 181123Z 1812/1912 27006KT P6SM FEW200
     FM181500 VRB05KT P6SM FEW200
     FM181800 08006KT P6SM FEW200
     FM182100 15012KT P6SM FEW110 SCT200
     FM190200 18010KT P6SM SKC
     FM190500 22007KT P6SM SKC=



000
FTUS45 KBOU 181123
TAFAPA
TAF
KAPA 181123Z 1812/1912 17007KT P6SM FEW220
     FM181500 23006KT P6SM FEW220
     FM181800 16010KT P6SM SCT220
     FM182100 16012G19KT P6SM FEW110 SCT220
     FM190200 19012KT P6SM SKC=



000
FTUS45 KBOU 180856 AAA
TAFDEN
TAF AMD
KDEN 180856Z 1809/1912 21011KT P6SM SCT120 SCT220
     FM182100 17012G19KT P6SM FEW110 SCT200
     FM190200 19014KT P6SM SKC=



000
FTUS45 KBOU 180856 AAA
TAFDEN
TAF AMD
KDEN 180856Z 1809/1912 21011KT P6SM SCT120 SCT220
     FM182100 17012G19KT P6SM FEW110 SCT200
     FM190200 19014KT P6SM SKC=



000
FTUS45 KBOU 180524
TAFBJC
TAF
KBJC 180524Z 1806/1906 25006KT P6SM SCT200
     FM181500 VRB05KT P6SM SCT200
     FM182100 16011KT P6SM FEW110 SCT200
     FM190200 22008KT P6SM SKC=



000
FTUS45 KBOU 180524
TAFDEN
TAF
KDEN 180524Z 1806/1912 23007KT P6SM SCT120 SCT220
     FM180700 18008KT P6SM SCT220
     FM180800 20011KT P6SM SCT200
     FM182100 17012G19KT P6SM FEW110 SCT200
     FM190200 19014KT P6SM SKC=



000
FTUS45 KBOU 180524
TAFAPA
TAF
KAPA 180524Z 1806/1906 VRB06KT P6SM FEW090 BKN150
     FM180700 18007KT P6SM FEW120 SCT200
     FM180800 19011KT P6SM SCT200
     FM182100 17012G19KT P6SM FEW110 SCT200
     FM190200 19014KT P6SM SKC=



000
FTUS45 KBOU 180524
TAFAPA
TAF
KAPA 180524Z 1806/1906 VRB06KT P6SM FEW090 BKN150
     FM180700 18007KT P6SM FEW120 SCT200
     FM180800 19011KT P6SM SCT200
     FM182100 17012G19KT P6SM FEW110 SCT200
     FM190200 19014KT P6SM SKC=



000
FTUS45 KBOU 180524
TAFDEN
TAF
KDEN 180524Z 1806/1912 23007KT P6SM SCT120 SCT220
     FM180700 18008KT P6SM SCT220
     FM180800 20011KT P6SM SCT200
     FM182100 17012G19KT P6SM FEW110 SCT200
     FM190200 19014KT P6SM SKC=



000
FTUS45 KBOU 180524
TAFBJC
TAF
KBJC 180524Z 1806/1906 25006KT P6SM SCT200
     FM181500 VRB05KT P6SM SCT200
     FM182100 16011KT P6SM FEW110 SCT200
     FM190200 22008KT P6SM SKC=



000
FTUS45 KBOU 180411 AAD
TAFDEN
TAF AMD
KDEN 180411Z 1804/1906 22007KT P6SM SCT120 SCT220
     FM180500 18008KT P6SM SCT220
     FM180600 20011KT P6SM SCT200
     FM182100 17012G19KT P6SM FEW110 SCT200=



000
FTUS45 KBOU 180411 AAD
TAFDEN
TAF AMD
KDEN 180411Z 1804/1906 22007KT P6SM SCT120 SCT220
     FM180500 18008KT P6SM SCT220
     FM180600 20011KT P6SM SCT200
     FM182100 17012G19KT P6SM FEW110 SCT200=



000
FTUS45 KBOU 180233 AAC
TAFDEN
TAF AMD
KDEN 180233Z 1803/1906 15007KT P6SM SCT120 BKN220
     FM180400 18008KT P6SM SCT220
     FM180600 20011KT P6SM SCT200
     FM182100 17012G19KT P6SM FEW110 SCT200=



000
FTUS45 KBOU 180233 AAC
TAFDEN
TAF AMD
KDEN 180233Z 1803/1906 15007KT P6SM SCT120 BKN220
     FM180400 18008KT P6SM SCT220
     FM180600 20011KT P6SM SCT200
     FM182100 17012G19KT P6SM FEW110 SCT200=



000
FTUS45 KBOU 180212 AAC
TAFAPA
TAF AMD
KAPA 180212Z 1802/1824 01009KT P6SM SCT110 BKN150
     FM180230 28008KT P6SM SCT110 BKN180
     FM180300 VRB06KT P6SM FEW090 BKN150
     FM180400 18007KT P6SM FEW120 SCT200
     FM180600 19011KT P6SM SCT200
     FM182100 17012G19KT P6SM FEW110 SCT200=



000
FTUS45 KBOU 180212 AAC
TAFAPA
TAF AMD
KAPA 180212Z 1802/1824 01009KT P6SM SCT110 BKN150
     FM180230 28008KT P6SM SCT110 BKN180
     FM180300 VRB06KT P6SM FEW090 BKN150
     FM180400 18007KT P6SM FEW120 SCT200
     FM180600 19011KT P6SM SCT200
     FM182100 17012G19KT P6SM FEW110 SCT200=



000
FTUS45 KBOU 180133 AAB
TAFAPA
TAF AMD
KAPA 180133Z 1802/1824 01018G28KT P6SM -TSRA SCT110CB BKN150
     FM180200 01012G18KT P6SM VCTS SCT090CB BKN150
     FM180300 07009KT P6SM FEW090 BKN150
     FM180400 14007KT P6SM FEW120 SCT200
     FM180600 19011KT P6SM SCT200
     FM182100 17012G19KT P6SM FEW110 SCT200=



000
FTUS45 KBOU 180133 AAB
TAFAPA
TAF AMD
KAPA 180133Z 1802/1824 01018G28KT P6SM -TSRA SCT110CB BKN150
     FM180200 01012G18KT P6SM VCTS SCT090CB BKN150
     FM180300 07009KT P6SM FEW090 BKN150
     FM180400 14007KT P6SM FEW120 SCT200
     FM180600 19011KT P6SM SCT200
     FM182100 17012G19KT P6SM FEW110 SCT200=



000
FTUS45 KBOU 180115 AAB
TAFDEN
TAF AMD
KDEN 180115Z 1801/1906 01010G18KT P6SM BKN120
     FM180230 08010KT P6SM FEW120 BKN220
     FM180400 15007KT P6SM SCT220
     FM180600 20011KT P6SM SCT200
     FM182100 17012G19KT P6SM FEW110 SCT200=



000
FTUS45 KBOU 180115 AAB
TAFDEN
TAF AMD
KDEN 180115Z 1801/1906 01010G18KT P6SM BKN120
     FM180230 08010KT P6SM FEW120 BKN220
     FM180400 15007KT P6SM SCT220
     FM180600 20011KT P6SM SCT200
     FM182100 17012G19KT P6SM FEW110 SCT200=



000
FTUS45 KBOU 180050 AAA
TAFAPA
TAF AMD
KAPA 180050Z 1801/1824 07006KT P6SM SCT100 SCT120 BKN170
     FM180120 01011G18KT P6SM VCTS SCT090CB BKN150
     FM180300 07009KT P6SM FEW090 BKN150
     FM180400 14007KT P6SM FEW120 SCT200
     FM180600 19011KT P6SM SCT200
     FM182100 17012G19KT P6SM FEW110 SCT200=



000
FTUS45 KBOU 180050 AAA
TAFAPA
TAF AMD
KAPA 180050Z 1801/1824 07006KT P6SM SCT100 SCT120 BKN170
     FM180120 01011G18KT P6SM VCTS SCT090CB BKN150
     FM180300 07009KT P6SM FEW090 BKN150
     FM180400 14007KT P6SM FEW120 SCT200
     FM180600 19011KT P6SM SCT200
     FM182100 17012G19KT P6SM FEW110 SCT200=



000
FTUS45 KBOU 180018 CCA
TAFBJC
TAF COR
KBJC 180018Z 1800/1824 01010G18KT P6SM SCT090 BKN120
     FM180200 06009KT P6SM FEW090 BKN150
     FM180300 VRB04KT P6SM FEW120 SCT200
     FM180600 25006KT P6SM SCT200
     FM181500 VRB05KT P6SM SCT200
     FM182100 17012G19KT P6SM FEW110 SCT200=



000
FTUS45 KBOU 180018 CCA
TAFBJC
TAF COR
KBJC 180018Z 1800/1824 01010G18KT P6SM SCT090 BKN120
     FM180200 06009KT P6SM FEW090 BKN150
     FM180300 VRB04KT P6SM FEW120 SCT200
     FM180600 25006KT P6SM SCT200
     FM181500 VRB05KT P6SM SCT200
     FM182100 17012G19KT P6SM FEW110 SCT200=



000
FTUS45 KBOU 180016 AAA
TAFDEN
TAF AMD
KDEN 180016Z 1800/1906 02010G18KT P6SM SCT090 BKN120
     FM180040 35019G33KT P6SM BKN090 BKN120
     FM180130 08010KT P6SM FEW090 BKN150
     FM180400 15007KT P6SM FEW120 SCT200
     FM180600 20011KT P6SM SCT200
     FM182100 17012G19KT P6SM FEW110 SCT200=



000
FTUS45 KBOU 180016 AAA
TAFDEN
TAF AMD
KDEN 180016Z 1800/1906 02010G18KT P6SM SCT090 BKN120
     FM180040 35019G33KT P6SM BKN090 BKN120
     FM180130 08010KT P6SM FEW090 BKN150
     FM180400 15007KT P6SM FEW120 SCT200
     FM180600 20011KT P6SM SCT200
     FM182100 17012G19KT P6SM FEW110 SCT200=



000
FTUS45 KBOU 180015 AAA
TAFBJC
TAF AMD
KBJC 180015Z 1800/1824 02010G18KT P6SM SCT090 BKN120
     FM180040 35019G33KT P6SM BKN090 BKN120
     FM180200 06009KT P6SM FEW090 BKN150
     FM180300 VRB04KT P6SM FEW120 SCT200
     FM180600 25006KT P6SM SCT200
     FM181500 VRB05KT P6SM SCT200
     FM182100 17012G19KT P6SM FEW110 SCT200=



000
FTUS45 KBOU 180015 AAA
TAFBJC
TAF AMD
KBJC 180015Z 1800/1824 02010G18KT P6SM SCT090 BKN120
     FM180040 35019G33KT P6SM BKN090 BKN120
     FM180200 06009KT P6SM FEW090 BKN150
     FM180300 VRB04KT P6SM FEW120 SCT200
     FM180600 25006KT P6SM SCT200
     FM181500 VRB05KT P6SM SCT200
     FM182100 17012G19KT P6SM FEW110 SCT200=



000
FTUS45 KBOU 172330
TAFBJC
TAF
KBJC 172330Z 1800/1824 VRB04KT P6SM SCT090 BKN120
     FM180030 02012G19KT P6SM SCT090 BKN150
     FM180200 06009KT P6SM FEW090 BKN150
     FM180300 VRB04KT P6SM FEW120 SCT200
     FM180600 25006KT P6SM SCT200
     FM181500 VRB05KT P6SM SCT200
     FM182100 17012G19KT P6SM FEW110 SCT200=



000
FTUS45 KBOU 172330
TAFAPA
TAF
KAPA 172330Z 1800/1824 07006KT P6SM SCT100 SCT120 BKN170
     FM180140 01011G18KT P6SM SCT090 BKN150
     FM180300 07009KT P6SM FEW090 BKN150
     FM180400 14007KT P6SM FEW120 SCT200
     FM180600 19011KT P6SM SCT200
     FM182100 17012G19KT P6SM FEW110 SCT200=



000
FTUS45 KBOU 172330
TAFDEN
TAF
KDEN 172330Z 1800/1906 04005KT P6SM SCT100 SCT120 BKN170
     FM180045 01012G20KT P6SM SCT090 BKN150
     FM180200 08010KT P6SM FEW090 BKN150
     FM180400 15007KT P6SM FEW120 SCT200
     FM180600 20011KT P6SM SCT200
     FM182100 17012G19KT P6SM FEW110 SCT200=



000
FTUS45 KBOU 172330
TAFBJC
TAF
KBJC 172330Z 1800/1824 VRB04KT P6SM SCT090 BKN120
     FM180030 02012G19KT P6SM SCT090 BKN150
     FM180200 06009KT P6SM FEW090 BKN150
     FM180300 VRB04KT P6SM FEW120 SCT200
     FM180600 25006KT P6SM SCT200
     FM181500 VRB05KT P6SM SCT200
     FM182100 17012G19KT P6SM FEW110 SCT200=



000
FTUS45 KBOU 172330
TAFDEN
TAF
KDEN 172330Z 1800/1906 04005KT P6SM SCT100 SCT120 BKN170
     FM180045 01012G20KT P6SM SCT090 BKN150
     FM180200 08010KT P6SM FEW090 BKN150
     FM180400 15007KT P6SM FEW120 SCT200
     FM180600 20011KT P6SM SCT200
     FM182100 17012G19KT P6SM FEW110 SCT200=



000
FTUS45 KBOU 172330
TAFAPA
TAF
KAPA 172330Z 1800/1824 07006KT P6SM SCT100 SCT120 BKN170
     FM180140 01011G18KT P6SM SCT090 BKN150
     FM180300 07009KT P6SM FEW090 BKN150
     FM180400 14007KT P6SM FEW120 SCT200
     FM180600 19011KT P6SM SCT200
     FM182100 17012G19KT P6SM FEW110 SCT200=



000
FTUS45 KBOU 172201 AAB
TAFDEN
TAF AMD
KDEN 172201Z 1722/1824 VRB04KT P6SM FEW100 SCT120 SCT220
     FM172300 03007KT P6SM SCT100 SCT120 BKN170
     FM180200 11009KT P6SM FEW090 BKN150
     FM180400 15007KT P6SM FEW120 SCT200
     FM180600 19008KT P6SM SCT200
     FM180800 22008KT P6SM SCT200
     FM181700 34006KT P6SM FEW200
     FM182000 05007KT P6SM FEW200=



000
FTUS45 KBOU 172201 AAB
TAFDEN
TAF AMD
KDEN 172201Z 1722/1824 VRB04KT P6SM FEW100 SCT120 SCT220
     FM172300 03007KT P6SM SCT100 SCT120 BKN170
     FM180200 11009KT P6SM FEW090 BKN150
     FM180400 15007KT P6SM FEW120 SCT200
     FM180600 19008KT P6SM SCT200
     FM180800 22008KT P6SM SCT200
     FM181700 34006KT P6SM FEW200
     FM182000 05007KT P6SM FEW200=



000
FTUS45 KBOU 172037 AAA
TAFAPA
TAF AMD
KAPA 172037Z 1721/1818 VRB05KT P6SM FEW110 SCT150 BKN220
     FM172200 02006KT P6SM SCT110 BKN150
     FM180300 15007KT P6SM FEW110 SCT150 BKN200
     FM180600 19008KT P6SM SCT200
     FM181600 24006KT P6SM FEW200=



000
FTUS45 KBOU 172037 AAA
TAFAPA
TAF AMD
KAPA 172037Z 1721/1818 VRB05KT P6SM FEW110 SCT150 BKN220
     FM172200 02006KT P6SM SCT110 BKN150
     FM180300 15007KT P6SM FEW110 SCT150 BKN200
     FM180600 19008KT P6SM SCT200
     FM181600 24006KT P6SM FEW200=



000
FTUS45 KBOU 172036 AAA
TAFDEN
TAF AMD
KDEN 172036Z 1721/1824 VRB04KT P6SM FEW100 SCT120 SCT220
     FM172200 03009KT P6SM SCT100 SCT120 BKN170
     FM180200 08009KT P6SM FEW090 BKN150
     FM180400 15007KT P6SM FEW120 SCT200
     FM180600 19008KT P6SM SCT200
     FM180800 22008KT P6SM SCT200
     FM181700 34006KT P6SM FEW200
     FM182000 05007KT P6SM FEW200=



000
FTUS45 KBOU 172036 AAA
TAFDEN
TAF AMD
KDEN 172036Z 1721/1824 VRB04KT P6SM FEW100 SCT120 SCT220
     FM172200 03009KT P6SM SCT100 SCT120 BKN170
     FM180200 08009KT P6SM FEW090 BKN150
     FM180400 15007KT P6SM FEW120 SCT200
     FM180600 19008KT P6SM SCT200
     FM180800 22008KT P6SM SCT200
     FM181700 34006KT P6SM FEW200
     FM182000 05007KT P6SM FEW200=



000
FTUS45 KBOU 171720
TAFDEN
TAF
KDEN 171720Z 1718/1824 03005KT P6SM FEW100 SCT120 BKN240
     FM172000 07006KT P6SM SCT100 SCT120 BKN220
     FM180200 15007KT P6SM FEW120 SCT200
     FM180600 19008KT P6SM SCT200
     FM180800 22008KT P6SM SCT200
     FM181700 34006KT P6SM FEW200
     FM182000 05007KT P6SM FEW200=



000
FTUS45 KBOU 171720
TAFAPA
TAF
KAPA 171720Z 1718/1818 VRB05KT P6SM FEW110 SCT150 BKN220
     FM172000 07006KT P6SM SCT110 BKN150
     FM180200 15007KT P6SM FEW110 SCT150 BKN200
     FM180600 19008KT P6SM SCT200
     FM181600 24006KT P6SM FEW200=



000
FTUS45 KBOU 171720
TAFBJC
TAF
KBJC 171720Z 1718/1818 VRB04KT P6SM SCT090 BKN220
     FM172000 07006KT P6SM SCT090 BKN220
     FM180200 18007KT P6SM FEW090 SCT200
     FM180600 VRB04KT P6SM SCT200
     FM181600 34006KT P6SM FEW200=



000
FTUS45 KBOU 171720
TAFBJC
TAF
KBJC 171720Z 1718/1818 VRB04KT P6SM SCT090 BKN220
     FM172000 07006KT P6SM SCT090 BKN220
     FM180200 18007KT P6SM FEW090 SCT200
     FM180600 VRB04KT P6SM SCT200
     FM181600 34006KT P6SM FEW200=



000
FTUS45 KBOU 171720
TAFDEN
TAF
KDEN 171720Z 1718/1824 03005KT P6SM FEW100 SCT120 BKN240
     FM172000 07006KT P6SM SCT100 SCT120 BKN220
     FM180200 15007KT P6SM FEW120 SCT200
     FM180600 19008KT P6SM SCT200
     FM180800 22008KT P6SM SCT200
     FM181700 34006KT P6SM FEW200
     FM182000 05007KT P6SM FEW200=



000
FTUS45 KBOU 171720
TAFAPA
TAF
KAPA 171720Z 1718/1818 VRB05KT P6SM FEW110 SCT150 BKN220
     FM172000 07006KT P6SM SCT110 BKN150
     FM180200 15007KT P6SM FEW110 SCT150 BKN200
     FM180600 19008KT P6SM SCT200
     FM181600 24006KT P6SM FEW200=



000
FTUS45 KBOU 171454 AAA
TAFDEN
TAF AMD
KDEN 171454Z 1715/1818 23008KT P6SM FEW100 SCT220
     FM171700 35007KT P6SM FEW100 SCT220
     FM172000 07006KT P6SM SCT100 SCT200
     FM180200 15007KT P6SM SCT200
     FM180600 19008KT P6SM SCT200=



000
FTUS45 KBOU 171454 AAA
TAFDEN
TAF AMD
KDEN 171454Z 1715/1818 23008KT P6SM FEW100 SCT220
     FM171700 35007KT P6SM FEW100 SCT220
     FM172000 07006KT P6SM SCT100 SCT200
     FM180200 15007KT P6SM SCT200
     FM180600 19008KT P6SM SCT200=



000
FTUS45 KBOU 171120
TAFAPA
TAF
KAPA 171120Z 1712/1812 19007KT P6SM BKN200
     FM171700 34007KT P6SM SCT200
     FM172100 08005KT P6SM SCT100 SCT200
     FM180200 15007KT P6SM SCT200
     FM180500 18007KT P6SM SCT200=



000
FTUS45 KBOU 171120
TAFDEN
TAF
KDEN 171120Z 1712/1818 24011KT P6SM SCT200
     FM171400 25006KT P6SM SCT200
     FM171700 35007KT P6SM SCT200
     FM172000 07006KT P6SM SCT100 SCT200
     FM180200 15007KT P6SM SCT200
     FM180600 19008KT P6SM SCT200=



000
FTUS45 KBOU 171120
TAFBJC
TAF
KBJC 171120Z 1712/1812 25006KT P6SM SCT200
     FM171500 32005KT P6SM SCT200
     FM171900 07007KT P6SM SCT100 SCT200
     FM180100 15006KT P6SM SCT100 SCT200
     FM180400 24006KT P6SM SCT200=



000
FTUS45 KBOU 171120
TAFBJC
TAF
KBJC 171120Z 1712/1812 25006KT P6SM SCT200
     FM171500 32005KT P6SM SCT200
     FM171900 07007KT P6SM SCT100 SCT200
     FM180100 15006KT P6SM SCT100 SCT200
     FM180400 24006KT P6SM SCT200=



000
FTUS45 KBOU 171120
TAFDEN
TAF
KDEN 171120Z 1712/1818 24011KT P6SM SCT200
     FM171400 25006KT P6SM SCT200
     FM171700 35007KT P6SM SCT200
     FM172000 07006KT P6SM SCT100 SCT200
     FM180200 15007KT P6SM SCT200
     FM180600 19008KT P6SM SCT200=



000
FTUS45 KBOU 171120
TAFAPA
TAF
KAPA 171120Z 1712/1812 19007KT P6SM BKN200
     FM171700 34007KT P6SM SCT200
     FM172100 08005KT P6SM SCT100 SCT200
     FM180200 15007KT P6SM SCT200
     FM180500 18007KT P6SM SCT200=



000
FTUS45 KBOU 170856 AAA
TAFDEN
TAF AMD
KDEN 170856Z 1709/1812 22010KT P6SM FEW150
     FM171400 25007KT P6SM FEW220
     FM171700 35007KT P6SM SCT250
     FM172100 07005KT P6SM SCT100 SCT250
     FM180200 15007KT P6SM FEW120=



000
FTUS45 KBOU 170856 AAA
TAFDEN
TAF AMD
KDEN 170856Z 1709/1812 22010KT P6SM FEW150
     FM171400 25007KT P6SM FEW220
     FM171700 35007KT P6SM SCT250
     FM172100 07005KT P6SM SCT100 SCT250
     FM180200 15007KT P6SM FEW120=



000
FTUS45 KBOU 170530
TAFAPA
TAF
KAPA 170530Z 1706/1806 19007KT P6SM FEW220
     FM171700 36007KT P6SM SCT250
     FM172200 08005KT P6SM SCT100 SCT250
     FM180200 15007KT P6SM FEW120=



000
FTUS45 KBOU 170530
TAFDEN
TAF
KDEN 170530Z 1706/1812 19013KT P6SM FEW150
     FM171400 25007KT P6SM FEW220
     FM171700 35007KT P6SM SCT250
     FM172100 07005KT P6SM SCT100 SCT250
     FM180200 15007KT P6SM FEW120=



000
FTUS45 KBOU 170530
TAFBJC
TAF
KBJC 170530Z 1706/1806 25006KT P6SM FEW220
     FM171500 32005KT P6SM FEW220
     FM172100 08009KT P6SM SCT100
     FM180200 VRB05KT P6SM FEW120=



000
FTUS45 KBOU 170530
TAFDEN
TAF
KDEN 170530Z 1706/1812 19013KT P6SM FEW150
     FM171400 25007KT P6SM FEW220
     FM171700 35007KT P6SM SCT250
     FM172100 07005KT P6SM SCT100 SCT250
     FM180200 15007KT P6SM FEW120=



000
FTUS45 KBOU 170530
TAFBJC
TAF
KBJC 170530Z 1706/1806 25006KT P6SM FEW220
     FM171500 32005KT P6SM FEW220
     FM172100 08009KT P6SM SCT100
     FM180200 VRB05KT P6SM FEW120=



000
FTUS45 KBOU 170530
TAFAPA
TAF
KAPA 170530Z 1706/1806 19007KT P6SM FEW220
     FM171700 36007KT P6SM SCT250
     FM172200 08005KT P6SM SCT100 SCT250
     FM180200 15007KT P6SM FEW120=



000
FTUS45 KBOU 170302 AAB
TAFAPA
TAF AMD
KAPA 170302Z 1703/1724 16010KT P6SM FEW080 SCT150
     FM170500 19007KT P6SM FEW220
     FM171700 36007KT P6SM FEW220
     FM172200 08005KT P6SM SCT100=



000
FTUS45 KBOU 170302 AAB
TAFAPA
TAF AMD
KAPA 170302Z 1703/1724 16010KT P6SM FEW080 SCT150
     FM170500 19007KT P6SM FEW220
     FM171700 36007KT P6SM FEW220
     FM172200 08005KT P6SM SCT100=



000
FTUS45 KBOU 170245 AAB
TAFDEN
TAF AMD
KDEN 170245Z 1703/1806 16011KT P6SM FEW080 SCT150
     FM170500 20009KT P6SM FEW150
     FM171400 25007KT P6SM FEW220
     FM171700 36007KT P6SM FEW220
     FM172200 08005KT P6SM SCT100
     FM180200 15007KT P6SM FEW120=



000
FTUS45 KBOU 170245 AAB
TAFDEN
TAF AMD
KDEN 170245Z 1703/1806 16011KT P6SM FEW080 SCT150
     FM170500 20009KT P6SM FEW150
     FM171400 25007KT P6SM FEW220
     FM171700 36007KT P6SM FEW220
     FM172200 08005KT P6SM SCT100
     FM180200 15007KT P6SM FEW120=



000
FTUS45 KBOU 170156 AAA
TAFBJC
TAF AMD
KBJC 170156Z 1702/1724 VRB04KT P6SM FEW080 SCT120
     FM170300 09011KT P6SM SCT120
     FM170500 VRB05KT P6SM FEW120
     FM170700 25006KT P6SM FEW220
     FM171700 03005KT P6SM FEW220
     FM172200 08005KT P6SM SCT100=



000
FTUS45 KBOU 170156 AAA
TAFBJC
TAF AMD
KBJC 170156Z 1702/1724 VRB04KT P6SM FEW080 SCT120
     FM170300 09011KT P6SM SCT120
     FM170500 VRB05KT P6SM FEW120
     FM170700 25006KT P6SM FEW220
     FM171700 03005KT P6SM FEW220
     FM172200 08005KT P6SM SCT100=



000
FTUS45 KBOU 170152 AAA
TAFAPA
TAF AMD
KAPA 170152Z 1702/1724 15007KT P6SM FEW080 SCT120
     FM170215 10011KT P6SM FEW100 SCT120
     FM170330 13010KT P6SM FEW120
     FM170500 18007KT P6SM FEW220
     FM171700 36007KT P6SM FEW220
     FM172200 08005KT P6SM SCT100=



000
FTUS45 KBOU 170152 AAA
TAFAPA
TAF AMD
KAPA 170152Z 1702/1724 15007KT P6SM FEW080 SCT120
     FM170215 10011KT P6SM FEW100 SCT120
     FM170330 13010KT P6SM FEW120
     FM170500 18007KT P6SM FEW220
     FM171700 36007KT P6SM FEW220
     FM172200 08005KT P6SM SCT100=



000
FTUS45 KBOU 162351 AAA
TAFDEN
TAF AMD
KDEN 162351Z 1700/1806 07006KT P6SM FEW080 SCT120
     FM170120 09010G14KT P6SM FEW100 FEW120
     FM170200 13006KT P6SM FEW120
     FM170500 21008KT P6SM FEW220
     FM171400 25007KT P6SM FEW220
     FM171700 36007KT P6SM FEW220
     FM172200 08005KT P6SM SCT100
     FM180200 15007KT P6SM FEW120=



000
FTUS45 KBOU 162351 AAA
TAFDEN
TAF AMD
KDEN 162351Z 1700/1806 07006KT P6SM FEW080 SCT120
     FM170120 09010G14KT P6SM FEW100 FEW120
     FM170200 13006KT P6SM FEW120
     FM170500 21008KT P6SM FEW220
     FM171400 25007KT P6SM FEW220
     FM171700 36007KT P6SM FEW220
     FM172200 08005KT P6SM SCT100
     FM180200 15007KT P6SM FEW120=



000
FTUS45 KBOU 162328
TAFDEN
TAF
KDEN 162328Z 1700/1806 07006KT P6SM FEW080 SCT120
     FM170200 13006KT P6SM FEW100 SCT120
     FM170500 21008KT P6SM FEW220
     FM171400 25007KT P6SM FEW220
     FM171700 36007KT P6SM FEW220
     FM172200 08005KT P6SM SCT100
     FM180200 15007KT P6SM FEW120=



000
FTUS45 KBOU 162328
TAFBJC
TAF
KBJC 162328Z 1700/1724 12005KT P6SM SCT120
     FM170100 19005KT P6SM SCT120
     FM170500 25006KT P6SM FEW220
     FM171700 03005KT P6SM FEW220
     FM172200 08005KT P6SM SCT100=



000
FTUS45 KBOU 162328
TAFAPA
TAF
KAPA 162328Z 1700/1724 08007KT P6SM FEW080 SCT120
     FM170200 15006KT P6SM FEW100 SCT120
     FM170500 18007KT P6SM FEW220
     FM171700 36007KT P6SM FEW220
     FM172200 08005KT P6SM SCT100=



000
FTUS45 KBOU 162328
TAFBJC
TAF
KBJC 162328Z 1700/1724 12005KT P6SM SCT120
     FM170100 19005KT P6SM SCT120
     FM170500 25006KT P6SM FEW220
     FM171700 03005KT P6SM FEW220
     FM172200 08005KT P6SM SCT100=



000
FTUS45 KBOU 162328
TAFAPA
TAF
KAPA 162328Z 1700/1724 08007KT P6SM FEW080 SCT120
     FM170200 15006KT P6SM FEW100 SCT120
     FM170500 18007KT P6SM FEW220
     FM171700 36007KT P6SM FEW220
     FM172200 08005KT P6SM SCT100=



000
FTUS45 KBOU 162328
TAFDEN
TAF
KDEN 162328Z 1700/1806 07006KT P6SM FEW080 SCT120
     FM170200 13006KT P6SM FEW100 SCT120
     FM170500 21008KT P6SM FEW220
     FM171400 25007KT P6SM FEW220
     FM171700 36007KT P6SM FEW220
     FM172200 08005KT P6SM SCT100
     FM180200 15007KT P6SM FEW120=



000
FTUS45 KBOU 162056 AAA
TAFDEN
TAF AMD
KDEN 162056Z 1621/1724 35007KT P6SM FEW080 FEW140
     FM162200 07006KT P6SM FEW080 SCT120
     FM170200 15006KT P6SM FEW100 SCT120
     FM170500 21008KT P6SM SCT220
     FM171700 36007KT P6SM FEW220
     FM172200 08005KT P6SM SCT100=



000
FTUS45 KBOU 162056 AAA
TAFDEN
TAF AMD
KDEN 162056Z 1621/1724 35007KT P6SM FEW080 FEW140
     FM162200 07006KT P6SM FEW080 SCT120
     FM170200 15006KT P6SM FEW100 SCT120
     FM170500 21008KT P6SM SCT220
     FM171700 36007KT P6SM FEW220
     FM172200 08005KT P6SM SCT100=



000
FTUS45 KBOU 161720
TAFAPA
TAF
KAPA 161720Z 1618/1718 01006KT P6SM FEW140
     FM162300 08007KT P6SM FEW080 SCT120
     FM170200 15006KT P6SM FEW100 SCT120
     FM170500 18007KT P6SM SCT220
     FM171700 36007KT P6SM FEW220=



000
FTUS45 KBOU 161720
TAFDEN
TAF
KDEN 161720Z 1618/1724 35007KT P6SM FEW080 FEW140
     FM162300 07006KT P6SM FEW080 SCT120
     FM170200 15006KT P6SM FEW100 SCT120
     FM170500 21008KT P6SM SCT220
     FM171700 36007KT P6SM FEW220
     FM172200 08005KT P6SM SCT100=



000
FTUS45 KBOU 161720
TAFBJC
TAF
KBJC 161720Z 1618/1718 13005KT P6SM SCT100
     FM161900 10005KT P6SM FEW100 SCT140
     FM170100 19006KT P6SM SCT120
     FM170500 25006KT P6SM SCT220
     FM171700 03005KT P6SM FEW220=



000
FTUS45 KBOU 161720
TAFAPA
TAF
KAPA 161720Z 1618/1718 01006KT P6SM FEW140
     FM162300 08007KT P6SM FEW080 SCT120
     FM170200 15006KT P6SM FEW100 SCT120
     FM170500 18007KT P6SM SCT220
     FM171700 36007KT P6SM FEW220=



000
FTUS45 KBOU 161720
TAFBJC
TAF
KBJC 161720Z 1618/1718 13005KT P6SM SCT100
     FM161900 10005KT P6SM FEW100 SCT140
     FM170100 19006KT P6SM SCT120
     FM170500 25006KT P6SM SCT220
     FM171700 03005KT P6SM FEW220=



000
FTUS45 KBOU 161720
TAFDEN
TAF
KDEN 161720Z 1618/1724 35007KT P6SM FEW080 FEW140
     FM162300 07006KT P6SM FEW080 SCT120
     FM170200 15006KT P6SM FEW100 SCT120
     FM170500 21008KT P6SM SCT220
     FM171700 36007KT P6SM FEW220
     FM172200 08005KT P6SM SCT100=



000
FTUS45 KBOU 161457 AAA
TAFDEN
TAF AMD
KDEN 161457Z 1615/1718 23011KT P6SM FEW080 FEW140
     FM161630 35008KT P6SM FEW100 FEW140
     FM162300 07006KT P6SM FEW080 SCT120
     FM170200 15006KT P6SM FEW100 SCT120
     FM170500 21008KT P6SM SCT220=



000
FTUS45 KBOU 161457 AAA
TAFAPA
TAF AMD
KAPA 161457Z 1615/1712 23011KT P6SM FEW140
     FM161700 36007KT P6SM FEW100 FEW140
     FM162300 08007KT P6SM FEW080 SCT120
     FM170200 15006KT P6SM FEW100 SCT120
     FM170500 18007KT P6SM SCT220=



000
FTUS45 KBOU 161457 AAA
TAFBJC
TAF AMD
KBJC 161457Z 1615/1712 36006KT P6SM FEW080
     FM161630 08006KT P6SM FEW080 SCT140
     FM170200 18006KT P6SM SCT120
     FM170500 25006KT P6SM SCT220=



000
FTUS45 KBOU 161457 AAA
TAFBJC
TAF AMD
KBJC 161457Z 1615/1712 36006KT P6SM FEW080
     FM161630 08006KT P6SM FEW080 SCT140
     FM170200 18006KT P6SM SCT120
     FM170500 25006KT P6SM SCT220=



000
FTUS45 KBOU 161457 AAA
TAFAPA
TAF AMD
KAPA 161457Z 1615/1712 23011KT P6SM FEW140
     FM161700 36007KT P6SM FEW100 FEW140
     FM162300 08007KT P6SM FEW080 SCT120
     FM170200 15006KT P6SM FEW100 SCT120
     FM170500 18007KT P6SM SCT220=



000
FTUS45 KBOU 161457 AAA
TAFDEN
TAF AMD
KDEN 161457Z 1615/1718 23011KT P6SM FEW080 FEW140
     FM161630 35008KT P6SM FEW100 FEW140
     FM162300 07006KT P6SM FEW080 SCT120
     FM170200 15006KT P6SM FEW100 SCT120
     FM170500 21008KT P6SM SCT220=



    US Dept of Commerce
    National Oceanic and Atmospheric Administration
    National Weather Service
    1325 East West Highway
    Silver Spring, MD 20910
    Page Author: NWS Internet Services Team
Disclaimer
Information Quality
Credits
Glossary
Privacy Policy
Freedom of Information Act (FOIA)
About Us
Career Opportunities